Time;durP1;ratioP1;P1;durP2;ratioP2;P2;SDS_P1;SDS_P2;PMS_P1;PMS_P2;Temp;Humidity;BMP_temperature;BMP_pressure;BME280_temperature;BME280_humidity;BME280_pressure;Samples;Min_cycle;Max_cycle;Signal;HPM_P1;HPM_P2
2020/12/14 00:00:30;;;;;;;10.00;2.58;;;17.10;74.10;;;;;;5089877;28;20115;-74
2020/12/14 00:02:59;;;;;;;14.35;3.70;;;17.10;74.10;;;;;;5091450;28;20028;-73
2020/12/14 00:05:26;;;;;;;15.20;3.83;;;17.00;74.70;;;;;;5082724;28;20035;-73
2020/12/14 00:07:52;;;;;;;10.25;2.53;;;17.00;74.50;;;;;;5095625;28;20032;-75
2020/12/14 00:10:19;;;;;;;12.63;3.33;;;16.90;74.60;;;;;;5096260;28;20031;-74
2020/12/14 00:12:45;;;;;;;17.92;3.13;;;17.00;74.20;;;;;;5098043;28;20035;-74
2020/12/14 00:15:12;;;;;;;13.55;3.85;;;17.10;73.80;;;;;;5096374;28;20028;-74
2020/12/14 00:17:38;;;;;;;12.98;3.13;;;16.90;74.10;;;;;;5094156;28;20028;-74
2020/12/14 00:20:05;;;;;;;13.18;3.00;;;17.00;73.40;;;;;;5097791;28;20051;-74
2020/12/14 00:22:33;;;;;;;19.45;3.55;;;17.00;73.50;;;;;;5087054;28;20024;-74
2020/12/14 00:25:00;;;;;;;14.52;3.22;;;16.90;73.50;;;;;;5077426;28;20159;-74
2020/12/14 00:27:26;;;;;;;8.95;2.35;;;16.80;73.90;;;;;;5088397;28;20036;-74
2020/12/14 00:29:53;;;;;;;15.77;3.05;;;16.70;74.30;;;;;;5090673;28;20411;-74
2020/12/14 00:32:19;;;;;;;20.77;3.38;;;16.70;74.70;;;;;;5088230;28;20430;-74
2020/12/14 00:34:46;;;;;;;14.43;4.10;;;16.60;75.00;;;;;;5093719;28;20039;-73
2020/12/14 00:37:12;;;;;;;24.52;5.20;;;16.70;74.40;;;;;;5095541;28;20027;-73
2020/12/14 00:39:39;;;;;;;17.10;3.40;;;16.70;74.60;;;;;;5085641;28;20054;-73
2020/12/14 00:42:05;;;;;;;22.42;4.45;;;16.60;75.00;;;;;;5095889;28;20349;-73
2020/12/14 00:44:32;;;;;;;17.15;3.25;;;16.60;74.90;;;;;;5095798;28;20024;-73
2020/12/14 00:46:58;;;;;;;15.63;3.72;;;16.70;74.70;;;;;;5095787;28;20023;-75
2020/12/14 00:49:25;;;;;;;19.95;5.18;;;16.40;75.20;;;;;;5090722;28;20035;-74
2020/12/14 00:51:51;;;;;;;25.48;4.68;;;16.60;75.10;;;;;;5096212;28;20067;-73
2020/12/14 00:54:18;;;;;;;16.63;3.78;;;16.60;74.80;;;;;;5095029;28;20110;-73
2020/12/14 00:56:44;;;;;;;25.63;5.40;;;16.60;74.60;;;;;;5096133;28;20026;-74
2020/12/14 00:59:11;;;;;;;23.80;5.18;;;16.60;74.20;;;;;;5090459;28;20021;-74
2020/12/14 01:01:37;;;;;;;26.38;3.97;;;16.30;75.10;;;;;;5096512;28;20357;-73
2020/12/14 01:04:04;;;;;;;28.05;3.95;;;16.30;75.50;;;;;;5096743;28;20020;-74
2020/12/14 01:06:30;;;;;;;17.63;4.88;;;16.30;75.40;;;;;;5092692;28;20028;-74
2020/12/14 01:08:57;;;;;;;27.88;5.53;;;16.20;75.80;;;;;;5086723;28;20020;-74
2020/12/14 01:11:28;;;;;;;19.83;5.13;;;16.20;76.00;;;;;;5090463;28;20024;-75
2020/12/14 01:13:54;;;;;;;18.75;4.47;;;16.30;75.70;;;;;;5097579;28;20341;-76
2020/12/14 01:16:21;;;;;;;20.10;4.10;;;16.20;75.70;;;;;;5107063;28;20032;-74
2020/12/14 01:18:48;;;;;;;23.15;4.70;;;16.30;75.20;;;;;;5094591;28;20103;-74
2020/12/14 01:21:14;;;;;;;19.20;5.35;;;16.20;75.60;;;;;;5090027;28;20020;-74
2020/12/14 01:23:40;;;;;;;24.60;5.55;;;16.10;75.80;;;;;;5089183;28;20111;-73
2020/12/14 01:26:07;;;;;;;19.35;4.20;;;16.10;75.40;;;;;;5096111;28;20111;-74
2020/12/14 01:28:33;;;;;;;21.83;4.65;;;16.20;75.00;;;;;;5096292;28;20035;-73
2020/12/14 01:31:00;;;;;;;28.70;5.32;;;16.10;75.10;;;;;;5089768;28;20451;-75
2020/12/14 01:33:26;;;;;;;21.48;5.22;;;16.00;74.30;;;;;;5082244;28;20026;-74
2020/12/14 01:35:52;;;;;;;19.95;4.28;;;16.00;74.60;;;;;;5088680;28;20077;-74
2020/12/14 01:38:19;;;;;;;23.90;5.25;;;15.90;74.60;;;;;;5089969;28;20022;-74
2020/12/14 01:40:45;;;;;;;22.90;5.20;;;16.00;73.70;;;;;;5087784;28;20114;-73
2020/12/14 01:43:12;;;;;;;27.52;5.47;;;15.90;74.20;;;;;;5089092;28;20036;-75
2020/12/14 01:45:39;;;;;;;20.30;5.30;;;15.90;73.30;;;;;;5088556;28;20511;-73
2020/12/14 01:48:08;;;;;;;21.17;4.13;;;15.90;73.90;;;;;;5088351;28;20361;-75
2020/12/14 01:50:35;;;;;;;21.27;4.20;;;15.80;74.00;;;;;;5089655;28;20136;-75
2020/12/14 01:53:03;;;;;;;35.63;8.23;;;15.70;74.80;;;;;;5086110;28;20894;-74
2020/12/14 01:55:50;;;;;;;27.17;7.38;;;15.70;74.70;;;;;;5088598;28;20027;-74
2020/12/14 01:58:17;;;;;;;24.90;4.53;;;15.90;74.70;;;;;;5099904;28;20093;-73
2020/12/14 02:00:43;;;;;;;26.65;5.30;;;16.00;73.20;;;;;;5084238;28;20052;-74
2020/12/14 02:03:09;;;;;;;26.33;5.20;;;16.10;72.40;;;;;;5085628;28;20477;-74
2020/12/14 02:05:36;;;;;;;21.27;5.55;;;16.20;71.20;;;;;;5085707;28;21182;-73
2020/12/14 02:08:05;;;;;;;30.73;6.07;;;15.90;71.90;;;;;;5083762;28;20042;-73
2020/12/14 02:10:32;;;;;;;37.40;7.40;;;15.70;73.20;;;;;;5080232;28;20481;-73
2020/12/14 02:12:59;;;;;;;22.90;7.20;;;15.20;75.10;;;;;;5092828;28;20042;-74
2020/12/14 02:15:25;;;;;;;37.53;8.07;;;15.20;75.50;;;;;;5097599;28;20029;-74
2020/12/14 02:17:52;;;;;;;27.30;4.75;;;15.10;76.20;;;;;;5087445;28;20077;-74
2020/12/14 02:20:18;;;;;;;26.05;4.85;;;15.00;76.80;;;;;;5086854;28;20056;-74
2020/12/14 02:22:44;;;;;;;28.00;5.25;;;14.80;76.60;;;;;;5085152;28;20058;-74
2020/12/14 02:25:11;;;;;;;28.42;5.68;;;14.60;77.20;;;;;;5087324;28;20028;-74
2020/12/14 02:27:37;;;;;;;22.92;5.28;;;14.60;77.50;;;;;;5089150;28;20028;-74
2020/12/14 02:30:06;;;;;;;23.35;5.45;;;14.50;77.50;;;;;;5092279;28;20060;-74
2020/12/14 02:32:33;;;;;;;30.13;7.75;;;14.60;77.10;;;;;;5084121;28;20024;-73
2020/12/14 02:34:59;;;;;;;27.45;8.32;;;14.70;76.20;;;;;;5104862;27;20085;-74
2020/12/14 02:37:28;;;;;;;25.83;6.35;;;14.60;76.60;;;;;;5080740;28;20042;-73
2020/12/14 02:39:55;;;;;;;28.65;10.00;;;14.60;75.90;;;;;;5083359;28;20054;-74
2020/12/14 02:42:24;;;;;;;18.77;5.32;;;14.60;75.30;;;;;;5091042;28;20032;-74
2020/12/14 02:44:50;;;;;;;22.92;6.10;;;14.70;75.20;;;;;;5089841;28;20028;-74
2020/12/14 02:47:17;;;;;;;20.85;4.60;;;14.60;75.10;;;;;;5084955;28;20397;-73
2020/12/14 02:49:44;;;;;;;12.18;4.22;;;14.50;74.70;;;;;;5090375;28;20057;-73
2020/12/14 02:52:11;;;;;;;16.63;5.00;;;14.40;73.80;;;;;;5089888;28;20023;-73
2020/12/14 02:54:39;;;;;;;8.10;3.28;;;14.50;73.40;;;;;;5086187;28;20028;-74
2020/12/14 02:57:06;;;;;;;13.00;3.17;;;14.20;74.50;;;;;;5097131;28;20110;-74
2020/12/14 02:59:33;;;;;;;14.20;2.75;;;14.20;73.10;;;;;;5090133;28;20480;-73
2020/12/14 03:01:59;;;;;;;9.25;2.80;;;14.30;72.20;;;;;;5083169;28;20046;-73
2020/12/14 03:04:25;;;;;;;14.80;2.60;;;14.20;72.50;;;;;;5082442;28;20470;-73
2020/12/14 03:06:52;;;;;;;6.13;2.25;;;14.10;71.70;;;;;;5083980;28;20028;-73
2020/12/14 03:09:21;;;;;;;12.10;2.15;;;14.10;71.00;;;;;;5085855;28;20031;-74
2020/12/14 03:11:48;;;;;;;7.57;2.63;;;14.00;72.30;;;;;;5089628;28;20566;-73
2020/12/14 03:14:15;;;;;;;16.15;3.92;;;14.10;72.30;;;;;;5082431;28;20028;-75
2020/12/14 03:16:45;;;;;;;5.70;2.35;;;14.10;70.70;;;;;;5082979;28;20410;-73
2020/12/14 03:19:12;;;;;;;11.10;3.72;;;14.10;71.20;;;;;;5084208;28;20059;-74
2020/12/14 03:21:38;;;;;;;17.08;4.82;;;14.10;71.60;;;;;;5089388;28;20020;-73
2020/12/14 03:24:05;;;;;;;12.77;3.65;;;14.10;70.80;;;;;;5092297;28;20039;-74
2020/12/14 03:26:31;;;;;;;10.07;3.20;;;14.00;71.50;;;;;;5080346;28;20028;-75
2020/12/14 03:28:58;;;;;;;16.48;4.25;;;14.10;70.40;;;;;;5091704;28;20024;-75
2020/12/14 03:31:25;;;;;;;18.85;3.88;;;14.00;71.30;;;;;;5091183;28;20097;-74
2020/12/14 03:33:54;;;;;;;10.55;3.42;;;14.00;70.90;;;;;;5091965;28;20066;-74
2020/12/14 03:36:21;;;;;;;10.18;2.85;;;13.90;71.30;;;;;;5082159;28;20346;-74
2020/12/14 03:38:51;;;;;;;15.45;3.35;;;13.80;71.80;;;;;;5080727;28;20457;-74
2020/12/14 03:41:18;;;;;;;11.35;3.08;;;13.80;72.00;;;;;;5080750;28;20115;-73
2020/12/14 03:43:44;;;;;;;17.55;3.50;;;13.80;71.80;;;;;;5085885;28;20126;-73
2020/12/14 03:46:22;;;;;;;15.40;3.47;;;13.80;72.30;;;;;;5082118;28;20497;-74
2020/12/14 03:48:53;;;;;;;14.27;3.42;;;13.70;72.70;;;;;;5087457;28;20032;-73
2020/12/14 03:51:20;;;;;;;14.48;3.78;;;13.70;72.90;;;;;;5089423;28;20026;-73
2020/12/14 03:53:47;;;;;;;13.40;3.55;;;13.70;72.70;;;;;;5085113;28;20053;-73
2020/12/14 03:56:13;;;;;;;22.98;4.63;;;13.70;72.60;;;;;;5090291;28;20051;-73
2020/12/14 03:58:40;;;;;;;21.15;4.35;;;13.70;72.60;;;;;;5089299;28;20027;-73
2020/12/14 04:01:06;;;;;;;10.57;3.05;;;13.80;72.50;;;;;;5086921;28;20516;-73
2020/12/14 04:03:32;;;;;;;11.93;3.38;;;13.80;72.00;;;;;;5089786;28;20028;-72
2020/12/14 04:05:59;;;;;;;28.45;7.63;;;13.70;72.80;;;;;;5089843;28;20031;-74
2020/12/14 04:08:25;;;;;;;19.13;6.28;;;13.60;73.00;;;;;;5086910;28;20036;-74
2020/12/14 04:10:51;;;;;;;13.30;5.25;;;13.70;72.90;;;;;;5088236;28;20039;-73
2020/12/14 04:13:18;;;;;;;16.95;4.25;;;13.60;73.10;;;;;;5081027;28;20021;-73
2020/12/14 04:15:44;;;;;;;14.98;4.90;;;13.50;73.50;;;;;;5086756;28;20039;-73
2020/12/14 04:18:10;;;;;;;10.65;3.10;;;13.50;73.40;;;;;;5088694;28;20020;-73
2020/12/14 04:20:37;;;;;;;12.35;5.10;;;13.50;73.20;;;;;;5091159;28;20389;-74
2020/12/14 04:23:03;;;;;;;10.30;3.40;;;13.40;73.40;;;;;;5087902;28;20020;-74
2020/12/14 04:25:30;;;;;;;10.82;2.92;;;13.50;73.30;;;;;;5091319;28;20038;-74
2020/12/14 04:27:59;;;;;;;17.88;3.97;;;13.50;73.30;;;;;;5092922;28;20028;-73
2020/12/14 04:30:27;;;;;;;17.00;3.25;;;13.50;73.00;;;;;;5079378;28;20465;-74
2020/12/14 04:32:53;;;;;;;11.50;2.75;;;13.60;72.80;;;;;;5091614;28;20028;-75
2020/12/14 04:35:20;;;;;;;25.50;5.53;;;13.80;71.80;;;;;;5090746;28;20048;-73
2020/12/14 04:37:48;;;;;;;10.77;3.28;;;13.70;71.90;;;;;;5091326;28;20686;-74
2020/12/14 04:40:15;;;;;;;13.27;2.88;;;13.80;70.90;;;;;;5084229;28;20052;-73
2020/12/14 04:42:43;;;;;;;16.65;3.78;;;13.70;71.80;;;;;;5083530;28;20032;-74
2020/12/14 04:45:12;;;;;;;14.82;3.75;;;13.50;72.70;;;;;;5083645;28;20111;-74
2020/12/14 04:47:39;;;;;;;17.60;3.25;;;13.40;73.00;;;;;;5084541;28;20116;-74
2020/12/14 04:50:06;;;;;;;12.30;3.35;;;13.50;72.40;;;;;;5087152;28;20449;-73
2020/12/14 04:52:34;;;;;;;12.88;4.50;;;13.30;72.90;;;;;;5093808;28;20134;-73
2020/12/14 04:55:03;;;;;;;41.80;5.88;;;13.40;72.90;;;;;;5099772;28;20024;-74
2020/12/14 04:57:32;;;;;;;17.67;3.63;;;13.30;73.10;;;;;;5090093;28;20035;-73
2020/12/14 04:59:58;;;;;;;15.65;3.15;;;13.40;72.60;;;;;;5092006;28;20016;-73
2020/12/14 05:02:25;;;;;;;12.32;3.15;;;13.30;72.40;;;;;;5093144;28;20085;-74
2020/12/14 05:04:52;;;;;;;15.05;3.45;;;13.30;72.40;;;;;;5090401;28;20028;-73
2020/12/14 05:07:19;;;;;;;14.18;3.88;;;13.40;72.30;;;;;;5094293;28;20056;-74
2020/12/14 05:09:45;;;;;;;17.77;5.13;;;13.20;72.20;;;;;;5095556;28;20020;-74
2020/12/14 05:12:18;;;;;;;17.33;4.55;;;13.70;69.90;;;;;;5094675;28;20052;-74
2020/12/14 05:14:45;;;;;;;15.75;5.43;;;13.40;71.10;;;;;;5092096;28;20020;-73
2020/12/14 05:17:22;;;;;;;17.23;7.80;;;13.30;72.50;;;;;;5087279;28;20361;-75
2020/12/14 05:19:48;;;;;;;22.45;4.60;;;13.20;72.00;;;;;;5090876;28;20154;-74
2020/12/14 05:22:17;;;;;;;18.27;5.38;;;13.20;71.60;;;;;;5090786;28;20055;-73
2020/12/14 05:24:50;;;;;;;18.52;4.97;;;13.20;71.70;;;;;;5095153;28;20036;-73
2020/12/14 05:27:33;;;;;;;29.80;8.45;;;13.20;71.80;;;;;;5095687;28;20035;-73
2020/12/14 05:30:00;;;;;;;18.60;4.88;;;13.20;71.80;;;;;;5092800;28;20354;-73
2020/12/14 05:32:27;;;;;;;17.38;4.47;;;13.20;71.90;;;;;;5087916;28;20411;-73
2020/12/14 05:34:53;;;;;;;21.60;7.15;;;13.20;71.60;;;;;;5092664;28;20020;-73
2020/12/14 05:37:20;;;;;;;25.10;7.05;;;13.10;71.60;;;;;;5097754;28;20074;-76
2020/12/14 05:39:46;;;;;;;17.40;4.60;;;13.20;71.80;;;;;;5092605;28;20015;-74
2020/12/14 05:42:18;;;;;;;23.48;6.22;;;13.30;70.20;;;;;;5094236;28;20512;-73
2020/12/14 05:44:46;;;;;;;19.85;3.35;;;13.20;70.40;;;;;;5093180;28;20039;-73
2020/12/14 05:47:25;;;;;;;14.77;4.22;;;13.20;71.00;;;;;;5093361;28;20465;-73
2020/12/14 05:49:52;;;;;;;25.67;5.70;;;13.10;70.70;;;;;;5084417;28;20028;-72
2020/12/14 05:52:20;;;;;;;18.60;5.03;;;13.30;70.00;;;;;;5085500;28;20024;-73
2020/12/14 05:54:52;;;;;;;16.88;4.50;;;13.20;70.60;;;;;;5092391;28;20040;-72
2020/12/14 05:57:30;;;;;;;14.60;4.28;;;13.10;70.80;;;;;;5086178;28;20374;-73
2020/12/14 05:59:59;;;;;;;12.82;3.80;;;13.10;70.50;;;;;;5089630;28;20511;-72
2020/12/14 06:02:27;;;;;;;24.45;6.95;;;13.00;71.00;;;;;;5098745;28;20075;-73
2020/12/14 06:04:56;;;;;;;20.38;5.53;;;12.90;70.60;;;;;;5084524;28;20435;-73
2020/12/14 06:07:27;;;;;;;13.85;4.18;;;13.00;70.90;;;;;;5092255;28;20092;-72
2020/12/14 06:10:03;;;;;;;18.30;4.35;;;13.00;70.00;;;;;;5091978;28;20326;-72
2020/12/14 06:12:31;;;;;;;17.13;4.57;;;12.90;70.80;;;;;;5092413;28;20050;-72
2020/12/14 06:15:17;;;;;;;24.45;5.75;;;12.90;71.10;;;;;;5094433;28;20510;-73
2020/12/14 06:17:47;;;;;;;21.58;4.35;;;12.80;69.90;;;;;;5094459;28;20039;-75
2020/12/14 06:20:20;;;;;;;15.63;4.93;;;12.80;70.70;;;;;;5098428;28;20024;-73
2020/12/14 06:22:47;;;;;;;;;;;12.80;71.10;;;;;;5100601;28;20020;-73
2020/12/14 06:25:16;;;;;;;16.33;4.20;;;12.90;71.00;;;;;;5098862;28;20249;-74
2020/12/14 06:27:43;;;;;;;27.42;5.80;;;12.90;70.80;;;;;;5102406;28;20362;-73
2020/12/14 06:30:35;;;;;;;19.05;4.68;;;12.80;70.10;;;;;;5101359;28;20031;-73
2020/12/14 06:33:12;;;;;;;12.25;4.88;;;12.80;70.60;;;;;;5092062;28;20036;-73
2020/12/14 06:35:49;;;;;;;13.75;3.58;;;12.70;70.50;;;;;;5098230;28;20115;-74
2020/12/14 06:38:40;;;;;;;22.50;3.25;;;12.70;70.70;;;;;;5096896;28;20391;-73
2020/12/14 06:41:21;;;;;;;18.85;4.22;;;12.70;70.50;;;;;;5099479;28;20024;-74
2020/12/14 06:43:49;;;;;;;20.55;5.07;;;12.60;70.20;;;;;;5099941;28;20118;-73
2020/12/14 06:46:36;;;;;;;23.48;5.55;;;12.50;70.80;;;;;;5090241;28;20032;-73
2020/12/14 06:49:03;;;;;;;17.48;4.43;;;12.60;70.40;;;;;;5093413;28;20040;-73
2020/12/14 06:51:49;;;;;;;21.15;4.72;;;12.40;70.50;;;;;;5087541;28;20032;-74
2020/12/14 06:54:38;;;;;;;28.50;6.75;;;12.50;70.80;;;;;;5097791;28;20122;-73
2020/12/14 06:57:05;;;;;;;16.30;5.00;;;12.50;70.90;;;;;;5090663;28;20488;-73
2020/12/14 06:59:32;;;;;;;22.83;4.82;;;12.50;70.90;;;;;;5096455;28;20040;-73
2020/12/14 07:02:00;;;;;;;16.60;4.03;;;12.70;70.70;;;;;;5095746;28;20035;-72
2020/12/14 07:04:30;;;;;;;19.95;3.72;;;12.60;71.00;;;;;;5092704;28;20036;-74
2020/12/14 07:06:56;;;;;;;17.63;4.03;;;12.70;70.40;;;;;;5096735;28;20085;-73
2020/12/14 07:09:33;;;;;;;12.43;3.92;;;12.80;70.20;;;;;;5082698;28;20469;-73
2020/12/14 07:12:22;;;;;;;12.95;4.40;;;12.70;70.80;;;;;;5094265;28;20517;-73
2020/12/14 07:14:54;;;;;;;17.65;4.20;;;12.70;70.70;;;;;;5083833;28;20041;-73
2020/12/14 07:17:26;;;;;;;13.88;3.45;;;12.80;69.80;;;;;;5086231;28;20028;-73
2020/12/14 07:19:54;;;;;;;18.08;3.13;;;12.70;70.30;;;;;;5083594;28;20036;-73
2020/12/14 07:22:30;;;;;;;21.55;5.68;;;12.60;70.60;;;;;;5093374;28;20357;-74
2020/12/14 07:25:03;;;;;;;18.77;4.35;;;12.60;70.70;;;;;;5077264;28;20028;-73
2020/12/14 07:27:31;;;;;;;16.75;3.85;;;12.70;70.20;;;;;;5086456;28;20031;-73
2020/12/14 07:30:08;;;;;;;12.90;4.15;;;12.70;70.70;;;;;;5086385;28;20027;-73
2020/12/14 07:32:35;;;;;;;19.33;5.68;;;12.40;71.80;;;;;;5084791;28;20020;-73
2020/12/14 07:35:02;;;;;;;27.10;4.75;;;12.60;71.80;;;;;;5087856;28;20031;-73
2020/12/14 07:37:29;;;;;;;19.25;5.18;;;12.60;71.30;;;;;;5091402;28;20035;-73
2020/12/14 07:39:55;;;;;;;19.20;4.88;;;12.50;71.10;;;;;;5093030;28;20089;-73
2020/12/14 07:42:26;;;;;;;20.67;4.40;;;12.50;71.00;;;;;;5088991;28;20029;-72
2020/12/14 07:45:08;;;;;;;19.23;4.50;;;12.40;71.00;;;;;;5089234;28;20029;-73
2020/12/14 07:47:35;;;;;;;20.60;5.05;;;12.50;70.90;;;;;;5083333;28;20028;-72
2020/12/14 07:50:19;;;;;;;20.05;4.93;;;12.40;71.10;;;;;;5085808;28;20028;-73
2020/12/14 07:52:46;;;;;;;13.75;3.22;;;12.40;71.30;;;;;;5085964;28;20111;-73
2020/12/14 07:55:14;;;;;;;17.13;3.97;;;12.40;71.40;;;;;;5101276;28;20035;-73
2020/12/14 07:57:44;;;;;;;19.77;4.25;;;12.40;71.50;;;;;;5100712;28;20024;-73
2020/12/14 08:00:15;;;;;;;15.10;4.05;;;12.40;71.40;;;;;;5090167;28;20017;-73
2020/12/14 08:02:43;;;;;;;16.75;4.07;;;12.30;71.60;;;;;;5089707;28;20024;-73
2020/12/14 08:05:13;;;;;;;15.85;3.33;;;12.20;71.70;;;;;;5085291;28;20052;-73
2020/12/14 08:07:51;;;;;;;23.13;6.00;;;12.10;71.40;;;;;;5082984;28;20033;-73
2020/12/14 08:10:37;;;;;;;13.52;3.83;;;12.10;71.40;;;;;;5089045;28;20107;-73
2020/12/14 08:13:11;;;;;;;17.67;3.90;;;12.00;71.60;;;;;;5090188;28;20032;-73
2020/12/14 08:15:38;;;;;;;12.55;4.10;;;12.00;71.40;;;;;;5087312;28;20027;-73
2020/12/14 08:18:08;;;;;;;24.05;4.50;;;11.90;71.30;;;;;;5091541;28;20031;-73
2020/12/14 08:20:39;;;;;;;16.35;4.78;;;11.90;70.50;;;;;;5088228;28;20093;-73
2020/12/14 08:23:23;;;;;;;16.17;4.47;;;11.80;70.50;;;;;;5092894;28;20032;-73
2020/12/14 08:25:52;;;;;;;25.80;4.47;;;11.80;70.40;;;;;;5091894;28;20304;-73
2020/12/14 08:28:34;;;;;;;17.08;4.93;;;11.70;70.50;;;;;;5093569;28;20024;-73
2020/12/14 08:31:04;;;;;;;;;;;11.50;70.40;;;;;;5097167;28;20024;-73
2020/12/14 08:33:30;;;;;;;29.23;4.50;;;11.50;70.60;;;;;;5095205;28;20256;-74
2020/12/14 08:35:57;;;;;;;18.88;5.30;;;11.40;70.70;;;;;;5096456;28;20016;-74
2020/12/14 08:38:29;;;;;;;26.73;4.90;;;11.40;71.50;;;;;;5096253;28;20093;-74
2020/12/14 08:41:03;;;;;;;14.93;4.38;;;11.30;71.30;;;;;;5087769;28;20468;-73
2020/12/14 08:43:35;;;;;;;23.58;5.40;;;11.30;71.80;;;;;;5090778;28;20051;-73
2020/12/14 08:46:15;;;;;;;36.22;5.35;;;11.40;71.90;;;;;;5089477;28;20032;-73
2020/12/14 08:48:49;;;;;;;33.28;5.95;;;11.40;73.90;;;;;;5094514;28;20115;-73
2020/12/14 08:51:22;;;;;;;32.33;9.32;;;11.50;73.80;;;;;;5091773;28;20467;-73
2020/12/14 08:53:51;;;;;;;32.97;5.53;;;11.50;74.50;;;;;;5096156;28;20024;-73
2020/12/14 08:56:21;;;;;;;28.42;5.65;;;11.70;73.50;;;;;;5096734;28;20028;-73
2020/12/14 08:59:00;;;;;;;28.70;5.25;;;11.70;73.40;;;;;;5090189;28;20434;-73
2020/12/14 09:01:29;;;;;;;29.52;7.55;;;11.80;72.30;;;;;;5090192;28;20023;-73
2020/12/14 09:03:58;;;;;;;30.48;5.75;;;11.90;73.30;;;;;;5088781;28;20353;-75
2020/12/14 09:06:26;;;;;;;18.08;4.57;;;11.90;73.20;;;;;;5091430;28;20087;-73
2020/12/14 09:09:15;;;;;;;28.35;6.05;;;11.90;72.70;;;;;;5092393;28;20037;-74
2020/12/14 09:11:42;;;;;;;24.75;5.97;;;12.00;73.60;;;;;;5088879;28;20501;-73
2020/12/14 09:14:10;;;;;;;26.90;5.95;;;11.90;73.70;;;;;;5087417;28;20107;-74
2020/12/14 09:16:37;;;;;;;32.22;6.78;;;12.00;73.80;;;;;;5084544;28;20025;-73
2020/12/14 09:19:04;;;;;;;44.03;8.82;;;12.10;73.10;;;;;;5088133;28;20027;-74
2020/12/14 09:21:32;;;;;;;36.33;7.72;;;12.20;72.80;;;;;;5094661;28;20104;-74
2020/12/14 09:24:12;;;;;;;48.00;7.80;;;12.20;72.80;;;;;;5091783;28;20070;-74
2020/12/14 09:26:39;;;;;;;35.75;7.70;;;12.20;72.50;;;;;;5095595;28;20501;-74
2020/12/14 09:29:06;;;;;;;36.75;7.90;;;12.30;72.60;;;;;;5092022;28;20032;-74
2020/12/14 09:31:33;;;;;;;35.13;6.60;;;12.40;72.30;;;;;;5100528;28;20110;-74
2020/12/14 09:33:59;;;;;;;32.15;7.03;;;12.40;72.10;;;;;;5087161;28;20090;-73
2020/12/14 09:36:26;;;;;;;37.17;7.18;;;12.30;72.90;;;;;;5090892;28;20024;-74
2020/12/14 09:38:54;;;;;;;27.85;7.10;;;12.30;72.30;;;;;;5094012;28;20187;-74
2020/12/14 09:41:31;;;;;;;37.38;8.18;;;12.30;72.60;;;;;;5092634;28;20051;-74
2020/12/14 09:43:59;;;;;;;29.33;6.40;;;12.30;72.70;;;;;;5093920;28;20032;-74
2020/12/14 09:46:29;;;;;;;32.70;6.78;;;12.30;73.10;;;;;;5091559;28;20024;-74
2020/12/14 09:48:57;;;;;;;23.33;6.30;;;12.20;72.70;;;;;;5094262;28;20038;-74
2020/12/14 09:51:25;;;;;;;28.70;6.65;;;12.20;72.80;;;;;;5092288;28;20115;-74
2020/12/14 09:53:51;;;;;;;27.33;5.88;;;12.10;73.10;;;;;;5095912;28;20450;-74
2020/12/14 09:56:18;;;;;;;24.33;6.63;;;12.20;72.70;;;;;;5095777;28;20082;-74
2020/12/14 09:58:45;;;;;;;26.75;5.43;;;12.30;72.50;;;;;;5092745;28;20077;-74
2020/12/14 10:01:12;;;;;;;20.25;5.88;;;12.40;72.10;;;;;;5086107;28;20035;-73
2020/12/14 10:03:39;;;;;;;29.85;7.40;;;12.50;71.30;;;;;;5092970;28;20595;-74
2020/12/14 10:06:05;;;;;;;32.17;6.65;;;12.60;71.40;;;;;;5094983;28;20027;-74
2020/12/14 10:08:31;;;;;;;26.73;6.13;;;12.50;71.20;;;;;;5094583;28;20362;-74
2020/12/14 10:10:58;;;;;;;20.35;6.20;;;12.60;70.90;;;;;;5094619;28;20031;-74
2020/12/14 10:13:25;;;;;;;26.13;5.78;;;12.60;70.80;;;;;;5094814;28;20012;-74
2020/12/14 10:15:52;;;;;;;22.90;6.35;;;12.40;71.10;;;;;;5095372;28;20437;-73
2020/12/14 10:18:19;;;;;;;25.67;4.85;;;12.60;70.70;;;;;;5090583;28;20024;-74
2020/12/14 10:20:46;;;;;;;23.15;5.45;;;12.50;70.70;;;;;;5095480;28;20077;-74
2020/12/14 10:23:13;;;;;;;18.25;3.92;;;12.70;70.30;;;;;;5086389;28;20033;-74
2020/12/14 10:25:40;;;;;;;23.50;6.40;;;12.50;70.40;;;;;;5085665;28;20115;-74
2020/12/14 10:28:06;;;;;;;24.55;5.40;;;12.60;70.40;;;;;;5088396;28;20024;-74
2020/12/14 10:30:34;;;;;;;28.10;6.70;;;12.70;70.40;;;;;;5094191;28;20028;-75
2020/12/14 10:33:00;;;;;;;20.75;6.35;;;12.50;70.80;;;;;;5086001;28;20032;-74
2020/12/14 10:35:27;;;;;;;29.60;5.75;;;12.50;70.70;;;;;;5090917;28;20046;-74
2020/12/14 10:37:55;;;;;;;25.13;5.53;;;12.50;70.90;;;;;;5095817;28;20077;-74
2020/12/14 10:40:22;;;;;;;22.35;4.43;;;12.50;70.70;;;;;;5092144;28;20081;-74
2020/12/14 10:42:49;;;;;;;31.73;5.32;;;12.40;71.00;;;;;;5090194;28;20028;-74
2020/12/14 10:45:15;;;;;;;24.83;4.78;;;12.30;70.30;;;;;;5080149;28;20115;-74
2020/12/14 10:47:42;;;;;;;14.23;4.22;;;12.60;68.90;;;;;;5084701;28;20366;-74
2020/12/14 10:50:09;;;;;;;22.38;5.70;;;12.80;68.40;;;;;;5094625;28;20091;-74
2020/12/14 10:52:36;;;;;;;19.15;3.67;;;12.60;69.30;;;;;;5088156;28;20353;-74
2020/12/14 10:55:04;;;;;;;14.98;3.60;;;12.50;69.70;;;;;;5091807;28;20020;-74
2020/12/14 10:57:31;;;;;;;25.85;5.32;;;12.50;69.20;;;;;;5091866;28;20020;-73
2020/12/14 11:00:06;;;;;;;20.92;4.70;;;12.40;70.10;;;;;;5095446;28;20059;-74
2020/12/14 11:02:36;;;;;;;28.85;5.00;;;12.40;70.10;;;;;;5081116;28;20238;-74
2020/12/14 11:05:10;;;;;;;31.63;7.40;;;12.60;69.70;;;;;;5093961;28;20085;-74
2020/12/14 11:07:37;;;;;;;27.35;5.22;;;12.50;69.70;;;;;;5088719;28;20032;-74
2020/12/14 11:10:08;;;;;;;19.52;5.13;;;12.50;70.00;;;;;;5097131;28;20063;-75
2020/12/14 11:12:35;;;;;;;28.85;6.22;;;12.60;69.80;;;;;;5091286;28;20024;-74
2020/12/14 11:15:02;;;;;;;19.55;4.63;;;12.60;69.70;;;;;;5088934;28;20029;-74
2020/12/14 11:17:29;;;;;;;24.13;6.63;;;12.50;70.10;;;;;;5090232;28;20098;-74
2020/12/14 11:19:55;;;;;;;22.77;5.28;;;12.50;70.20;;;;;;5086650;28;20411;-73
2020/12/14 11:22:22;;;;;;;15.95;3.55;;;12.50;69.40;;;;;;5093530;28;20042;-75
2020/12/14 11:24:48;;;;;;;15.88;3.97;;;12.50;69.70;;;;;;5093368;28;20020;-74
2020/12/14 11:27:15;;;;;;;24.08;6.60;;;12.50;69.80;;;;;;5091334;28;20424;-74
2020/12/14 11:29:41;;;;;;;18.27;5.70;;;12.50;69.20;;;;;;5094043;28;20016;-74
2020/12/14 11:32:07;;;;;;;18.42;6.07;;;12.40;69.50;;;;;;5091088;28;20464;-75
2020/12/14 11:34:34;;;;;;;21.33;4.78;;;12.40;69.80;;;;;;5095274;28;20027;-74
2020/12/14 11:37:01;;;;;;;24.10;5.97;;;12.20;70.30;;;;;;5093911;28;20434;-74
2020/12/14 11:39:28;;;;;;;21.25;5.10;;;12.30;70.30;;;;;;5093876;28;20085;-75
2020/12/14 11:41:54;;;;;;;24.10;4.63;;;12.30;70.40;;;;;;5092993;28;20103;-74
2020/12/14 11:44:21;;;;;;;29.63;8.10;;;12.20;70.70;;;;;;5094377;28;20095;-74
2020/12/14 11:46:51;;;;;;;24.55;6.55;;;12.20;71.00;;;;;;5086852;28;20020;-75
2020/12/14 11:49:18;;;;;;;26.35;5.95;;;12.30;70.70;;;;;;5092267;28;20388;-75
2020/12/14 11:51:46;;;;;;;25.60;6.40;;;12.30;70.60;;;;;;5091692;28;20365;-74
2020/12/14 11:54:12;;;;;;;28.20;6.28;;;12.30;70.90;;;;;;5092622;28;20016;-75
2020/12/14 11:56:39;;;;;;;26.58;5.45;;;12.30;71.00;;;;;;5093404;28;20361;-74
2020/12/14 11:59:05;;;;;;;28.55;5.22;;;12.30;71.10;;;;;;5088084;28;20428;-74
2020/12/14 12:01:32;;;;;;;21.90;4.72;;;12.10;71.50;;;;;;5092518;28;20449;-74
2020/12/14 12:03:58;;;;;;;22.15;4.93;;;12.20;71.30;;;;;;5087705;28;20369;-75
2020/12/14 12:06:29;;;;;;;21.85;4.90;;;12.10;71.60;;;;;;5092349;28;20453;-75
2020/12/14 12:08:58;;;;;;;18.60;4.57;;;12.10;71.60;;;;;;5091786;28;20032;-74
2020/12/14 12:11:25;;;;;;;27.38;6.45;;;12.10;71.50;;;;;;5090836;28;20109;-74
2020/12/14 12:13:52;;;;;;;20.00;4.18;;;12.10;71.00;;;;;;5080041;28;20032;-74
2020/12/14 12:16:19;;;;;;;26.67;6.30;;;12.00;71.10;;;;;;5092815;28;20028;-76
2020/12/14 12:18:49;;;;;;;24.58;5.82;;;11.90;71.50;;;;;;5087097;28;20028;-75
2020/12/14 12:21:16;;;;;;;18.38;4.88;;;11.80;71.40;;;;;;5091737;28;20071;-75
2020/12/14 12:23:46;;;;;;;24.27;5.88;;;11.80;71.30;;;;;;5092291;28;20039;-74
2020/12/14 12:26:12;;;;;;;16.58;4.80;;;11.70;71.60;;;;;;5091500;28;20052;-74
2020/12/14 12:28:39;;;;;;;9.88;3.25;;;11.80;71.20;;;;;;5092238;28;20503;-74
2020/12/14 12:31:06;;;;;;;29.23;5.88;;;11.70;71.20;;;;;;5092589;28;20028;-74
2020/12/14 12:33:34;;;;;;;21.13;5.47;;;11.60;71.40;;;;;;5091231;28;20103;-74
2020/12/14 12:36:00;;;;;;;22.60;5.60;;;11.50;71.40;;;;;;5094568;28;20047;-74
2020/12/14 12:38:27;;;;;;;27.35;7.32;;;11.50;71.50;;;;;;5092174;28;20028;-74
2020/12/14 12:40:53;;;;;;;28.95;7.10;;;11.40;71.50;;;;;;5092540;28;20398;-73
2020/12/14 12:43:20;;;;;;;33.55;8.63;;;11.40;71.40;;;;;;5093212;28;20028;-74
2020/12/14 12:45:46;;;;;;;26.80;5.63;;;11.40;71.50;;;;;;5089335;28;20094;-74